sensor_id;sensor_type;location;lat;lon;timestamp;P1;durP1;ratioP1;P2;durP2;ratioP2
37845;SDS011;23686;49.828;8.702;2022-10-16T00:00:34;1.92;;;1.63;;
37845;SDS011;23686;49.828;8.702;2022-10-16T00:03:00;2.00;;;1.30;;
37845;SDS011;23686;49.828;8.702;2022-10-16T00:05:26;2.45;;;1.50;;
37845;SDS011;23686;49.828;8.702;2022-10-16T00:07:52;2.38;;;1.40;;
37845;SDS011;23686;49.828;8.702;2022-10-16T00:10:18;2.05;;;1.45;;
37845;SDS011;23686;49.828;8.702;2022-10-16T00:12:43;1.83;;;1.30;;
37845;SDS011;23686;49.828;8.702;2022-10-16T00:15:09;1.52;;;1.40;;
37845;SDS011;23686;49.828;8.702;2022-10-16T00:17:35;6.25;;;2.13;;
37845;SDS011;23686;49.828;8.702;2022-10-16T00:20:00;2.30;;;1.48;;
37845;SDS011;23686;49.828;8.702;2022-10-16T00:22:26;1.92;;;1.30;;
37845;SDS011;23686;49.828;8.702;2022-10-16T00:24:51;4.10;;;1.30;;
37845;SDS011;23686;49.828;8.702;2022-10-16T00:27:17;2.80;;;1.40;;
37845;SDS011;23686;49.828;8.702;2022-10-16T00:29:43;2.80;;;1.38;;
37845;SDS011;23686;49.828;8.702;2022-10-16T00:32:08;1.17;;;1.05;;
37845;SDS011;23686;49.828;8.702;2022-10-16T00:34:34;1.35;;;1.02;;
37845;SDS011;23686;49.828;8.702;2022-10-16T00:37:00;2.30;;;1.10;;
37845;SDS011;23686;49.828;8.702;2022-10-16T00:39:25;2.00;;;1.65;;
37845;SDS011;23686;49.828;8.702;2022-10-16T00:41:51;2.83;;;1.27;;
37845;SDS011;23686;49.828;8.702;2022-10-16T00:47:18;1.63;;;1.30;;
37845;SDS011;23686;49.828;8.702;2022-10-16T00:49:47;3.67;;;1.20;;
37845;SDS011;23686;49.828;8.702;2022-10-16T00:52:15;1.42;;;1.20;;
37845;SDS011;23686;49.828;8.702;2022-10-16T00:54:41;1.77;;;0.90;;
37845;SDS011;23686;49.828;8.702;2022-10-16T00:57:07;2.13;;;1.10;;
37845;SDS011;23686;49.828;8.702;2022-10-16T00:59:36;2.28;;;1.00;;
37845;SDS011;23686;49.828;8.702;2022-10-16T01:02:05;2.65;;;1.30;;
37845;SDS011;23686;49.828;8.702;2022-10-16T01:04:34;7.13;;;1.03;;
37845;SDS011;23686;49.828;8.702;2022-10-16T01:07:09;1.02;;;0.80;;
37845;SDS011;23686;49.828;8.702;2022-10-16T01:09:47;1.10;;;0.80;;
37845;SDS011;23686;49.828;8.702;2022-10-16T01:12:32;1.13;;;0.90;;
37845;SDS011;23686;49.828;8.702;2022-10-16T01:17:37;0.82;;;0.70;;
37845;SDS011;23686;49.828;8.702;2022-10-16T01:22:59;2.97;;;0.90;;
37845;SDS011;23686;49.828;8.702;2022-10-16T01:28:17;1.15;;;0.80;;
37845;SDS011;23686;49.828;8.702;2022-10-16T01:30:46;1.60;;;0.82;;
37845;SDS011;23686;49.828;8.702;2022-10-16T01:33:21;2.70;;;1.08;;
37845;SDS011;23686;49.828;8.702;2022-10-16T01:42:46;1.67;;;0.70;;
37845;SDS011;23686;49.828;8.702;2022-10-16T01:45:18;1.65;;;1.00;;
37845;SDS011;23686;49.828;8.702;2022-10-16T01:47:46;5.43;;;1.00;;
37845;SDS011;23686;49.828;8.702;2022-10-16T01:50:14;2.45;;;0.90;;
37845;SDS011;23686;49.828;8.702;2022-10-16T01:52:43;2.88;;;1.25;;
37845;SDS011;23686;49.828;8.702;2022-10-16T01:55:12;1.58;;;1.20;;
37845;SDS011;23686;49.828;8.702;2022-10-16T01:57:42;1.27;;;1.15;;
37845;SDS011;23686;49.828;8.702;2022-10-16T02:00:11;1.48;;;1.20;;
37845;SDS011;23686;49.828;8.702;2022-10-16T02:02:39;1.97;;;1.63;;
37845;SDS011;23686;49.828;8.702;2022-10-16T02:05:12;1.35;;;1.10;;
37845;SDS011;23686;49.828;8.702;2022-10-16T02:07:43;2.08;;;1.10;;
37845;SDS011;23686;49.828;8.702;2022-10-16T02:10:09;2.55;;;1.13;;
37845;SDS011;23686;49.828;8.702;2022-10-16T02:12:36;1.83;;;1.20;;
37845;SDS011;23686;49.828;8.702;2022-10-16T02:15:06;1.27;;;1.17;;
37845;SDS011;23686;49.828;8.702;2022-10-16T02:17:32;2.45;;;1.50;;
37845;SDS011;23686;49.828;8.702;2022-10-16T02:19:57;3.40;;;1.60;;
37845;SDS011;23686;49.828;8.702;2022-10-16T02:24:58;2.35;;;1.42;;
37845;SDS011;23686;49.828;8.702;2022-10-16T02:32:49;2.53;;;1.85;;
37845;SDS011;23686;49.828;8.702;2022-10-16T02:35:17;2.03;;;1.70;;
37845;SDS011;23686;49.828;8.702;2022-10-16T02:40:11;2.15;;;1.70;;
37845;SDS011;23686;49.828;8.702;2022-10-16T02:42:38;2.47;;;1.70;;
37845;SDS011;23686;49.828;8.702;2022-10-16T02:45:05;3.33;;;2.00;;
37845;SDS011;23686;49.828;8.702;2022-10-16T02:47:32;3.92;;;1.55;;
37845;SDS011;23686;49.828;8.702;2022-10-16T02:49:58;2.67;;;1.73;;
37845;SDS011;23686;49.828;8.702;2022-10-16T02:52:24;4.07;;;2.72;;
37845;SDS011;23686;49.828;8.702;2022-10-16T02:54:49;2.17;;;1.60;;
37845;SDS011;23686;49.828;8.702;2022-10-16T02:57:15;4.22;;;1.73;;
37845;SDS011;23686;49.828;8.702;2022-10-16T02:59:40;2.80;;;1.98;;
37845;SDS011;23686;49.828;8.702;2022-10-16T03:02:06;4.75;;;1.88;;
37845;SDS011;23686;49.828;8.702;2022-10-16T03:04:32;3.72;;;1.98;;
37845;SDS011;23686;49.828;8.702;2022-10-16T03:06:57;3.85;;;2.17;;
37845;SDS011;23686;49.828;8.702;2022-10-16T03:09:23;5.57;;;2.58;;
37845;SDS011;23686;49.828;8.702;2022-10-16T03:11:48;2.80;;;2.33;;
37845;SDS011;23686;49.828;8.702;2022-10-16T03:14:14;2.63;;;2.20;;
37845;SDS011;23686;49.828;8.702;2022-10-16T03:16:39;4.72;;;2.30;;
37845;SDS011;23686;49.828;8.702;2022-10-16T03:19:05;3.83;;;2.00;;
37845;SDS011;23686;49.828;8.702;2022-10-16T03:21:30;2.40;;;2.20;;
37845;SDS011;23686;49.828;8.702;2022-10-16T03:23:56;2.45;;;2.00;;
37845;SDS011;23686;49.828;8.702;2022-10-16T03:26:21;11.25;;;2.20;;
37845;SDS011;23686;49.828;8.702;2022-10-16T03:28:47;3.20;;;2.00;;
37845;SDS011;23686;49.828;8.702;2022-10-16T03:31:12;5.35;;;2.17;;
37845;SDS011;23686;49.828;8.702;2022-10-16T03:33:38;4.72;;;3.92;;
37845;SDS011;23686;49.828;8.702;2022-10-16T03:36:04;4.70;;;3.90;;
37845;SDS011;23686;49.828;8.702;2022-10-16T03:38:29;7.53;;;5.13;;
37845;SDS011;23686;49.828;8.702;2022-10-16T03:40:55;9.43;;;4.50;;
37845;SDS011;23686;49.828;8.702;2022-10-16T03:43:20;4.65;;;4.25;;
37845;SDS011;23686;49.828;8.702;2022-10-16T03:45:46;7.20;;;3.72;;
37845;SDS011;23686;49.828;8.702;2022-10-16T03:48:12;6.00;;;3.45;;
37845;SDS011;23686;49.828;8.702;2022-10-16T03:50:37;6.97;;;3.47;;
37845;SDS011;23686;49.828;8.702;2022-10-16T03:53:03;5.63;;;4.30;;
37845;SDS011;23686;49.828;8.702;2022-10-16T03:55:28;6.05;;;4.30;;
37845;SDS011;23686;49.828;8.702;2022-10-16T03:57:54;7.60;;;4.57;;
37845;SDS011;23686;49.828;8.702;2022-10-16T04:00:20;6.55;;;3.90;;
37845;SDS011;23686;49.828;8.702;2022-10-16T04:02:45;12.43;;;4.00;;
37845;SDS011;23686;49.828;8.702;2022-10-16T04:05:11;6.32;;;4.40;;
37845;SDS011;23686;49.828;8.702;2022-10-16T04:07:36;9.27;;;5.00;;
37845;SDS011;23686;49.828;8.702;2022-10-16T04:10:02;9.90;;;4.85;;
37845;SDS011;23686;49.828;8.702;2022-10-16T04:12:28;7.32;;;4.60;;
37845;SDS011;23686;49.828;8.702;2022-10-16T04:14:54;9.35;;;5.20;;
37845;SDS011;23686;49.828;8.702;2022-10-16T04:17:19;6.72;;;5.20;;
37845;SDS011;23686;49.828;8.702;2022-10-16T04:19:45;14.70;;;5.55;;
37845;SDS011;23686;49.828;8.702;2022-10-16T04:22:11;8.30;;;5.40;;
37845;SDS011;23686;49.828;8.702;2022-10-16T04:24:36;7.68;;;5.15;;
37845;SDS011;23686;49.828;8.702;2022-10-16T04:27:02;7.10;;;5.32;;
37845;SDS011;23686;49.828;8.702;2022-10-16T04:29:27;7.43;;;5.47;;
37845;SDS011;23686;49.828;8.702;2022-10-16T04:31:53;14.38;;;6.70;;
37845;SDS011;23686;49.828;8.702;2022-10-16T04:34:18;8.50;;;5.55;;
37845;SDS011;23686;49.828;8.702;2022-10-16T04:36:46;8.48;;;5.50;;
37845;SDS011;23686;49.828;8.702;2022-10-16T04:39:13;5.68;;;4.55;;
37845;SDS011;23686;49.828;8.702;2022-10-16T04:41:38;8.50;;;5.70;;
37845;SDS011;23686;49.828;8.702;2022-10-16T04:44:04;11.23;;;5.97;;
37845;SDS011;23686;49.828;8.702;2022-10-16T04:46:29;7.10;;;5.65;;
37845;SDS011;23686;49.828;8.702;2022-10-16T04:48:55;9.45;;;6.55;;
37845;SDS011;23686;49.828;8.702;2022-10-16T04:51:21;11.23;;;5.88;;
37845;SDS011;23686;49.828;8.702;2022-10-16T04:53:46;7.57;;;6.20;;
37845;SDS011;23686;49.828;8.702;2022-10-16T04:56:12;11.15;;;7.00;;
37845;SDS011;23686;49.828;8.702;2022-10-16T04:58:37;10.02;;;6.75;;
37845;SDS011;23686;49.828;8.702;2022-10-16T05:01:06;11.77;;;6.60;;
37845;SDS011;23686;49.828;8.702;2022-10-16T05:03:33;12.55;;;6.70;;
37845;SDS011;23686;49.828;8.702;2022-10-16T05:05:59;9.75;;;6.85;;
37845;SDS011;23686;49.828;8.702;2022-10-16T05:08:24;9.43;;;6.85;;
37845;SDS011;23686;49.828;8.702;2022-10-16T05:10:50;11.43;;;7.05;;
37845;SDS011;23686;49.828;8.702;2022-10-16T05:13:15;13.25;;;6.80;;
37845;SDS011;23686;49.828;8.702;2022-10-16T05:15:41;10.20;;;6.70;;
37845;SDS011;23686;49.828;8.702;2022-10-16T05:18:07;9.20;;;6.28;;
37845;SDS011;23686;49.828;8.702;2022-10-16T05:20:33;7.15;;;6.28;;
37845;SDS011;23686;49.828;8.702;2022-10-16T05:22:59;10.85;;;5.93;;
37845;SDS011;23686;49.828;8.702;2022-10-16T05:25:24;11.95;;;6.68;;
37845;SDS011;23686;49.828;8.702;2022-10-16T05:27:50;15.35;;;7.03;;
37845;SDS011;23686;49.828;8.702;2022-10-16T05:30:16;10.93;;;6.40;;
37845;SDS011;23686;49.828;8.702;2022-10-16T05:32:45;12.35;;;6.40;;
37845;SDS011;23686;49.828;8.702;2022-10-16T05:35:12;14.30;;;5.20;;
37845;SDS011;23686;49.828;8.702;2022-10-16T05:37:38;7.15;;;5.20;;
37845;SDS011;23686;49.828;8.702;2022-10-16T05:40:03;11.82;;;5.43;;
37845;SDS011;23686;49.828;8.702;2022-10-16T05:42:29;9.00;;;5.45;;
37845;SDS011;23686;49.828;8.702;2022-10-16T05:44:55;10.43;;;5.22;;
37845;SDS011;23686;49.828;8.702;2022-10-16T05:47:21;8.23;;;6.10;;
37845;SDS011;23686;49.828;8.702;2022-10-16T05:49:46;8.38;;;5.13;;
37845;SDS011;23686;49.828;8.702;2022-10-16T05:52:12;8.25;;;5.10;;
37845;SDS011;23686;49.828;8.702;2022-10-16T05:54:37;8.30;;;4.88;;
37845;SDS011;23686;49.828;8.702;2022-10-16T05:57:03;9.15;;;5.50;;
37845;SDS011;23686;49.828;8.702;2022-10-16T05:59:30;13.45;;;4.55;;
37845;SDS011;23686;49.828;8.702;2022-10-16T06:01:56;7.78;;;5.38;;
37845;SDS011;23686;49.828;8.702;2022-10-16T06:04:22;6.32;;;4.38;;
37845;SDS011;23686;49.828;8.702;2022-10-16T06:06:47;18.50;;;5.57;;
37845;SDS011;23686;49.828;8.702;2022-10-16T06:09:13;13.05;;;5.15;;
37845;SDS011;23686;49.828;8.702;2022-10-16T06:11:38;12.45;;;5.10;;
37845;SDS011;23686;49.828;8.702;2022-10-16T06:14:04;9.93;;;4.75;;
37845;SDS011;23686;49.828;8.702;2022-10-16T06:16:32;11.37;;;5.70;;
37845;SDS011;23686;49.828;8.702;2022-10-16T06:18:59;9.23;;;4.57;;
37845;SDS011;23686;49.828;8.702;2022-10-16T06:21:25;8.02;;;5.18;;
37845;SDS011;23686;49.828;8.702;2022-10-16T06:23:53;13.45;;;6.22;;
37845;SDS011;23686;49.828;8.702;2022-10-16T06:26:22;12.52;;;5.72;;
37845;SDS011;23686;49.828;8.702;2022-10-16T06:28:49;9.85;;;5.18;;
37845;SDS011;23686;49.828;8.702;2022-10-16T06:31:15;5.53;;;4.50;;
37845;SDS011;23686;49.828;8.702;2022-10-16T06:33:41;6.20;;;4.60;;
37845;SDS011;23686;49.828;8.702;2022-10-16T06:36:08;6.75;;;4.50;;
37845;SDS011;23686;49.828;8.702;2022-10-16T06:41:01;8.25;;;4.88;;
37845;SDS011;23686;49.828;8.702;2022-10-16T06:43:31;10.98;;;4.30;;
37845;SDS011;23686;49.828;8.702;2022-10-16T06:45:57;4.63;;;4.10;;
37845;SDS011;23686;49.828;8.702;2022-10-16T06:48:24;7.97;;;4.22;;
37845;SDS011;23686;49.828;8.702;2022-10-16T06:50:55;5.55;;;3.97;;
37845;SDS011;23686;49.828;8.702;2022-10-16T06:53:24;10.35;;;5.90;;
37845;SDS011;23686;49.828;8.702;2022-10-16T06:55:52;10.75;;;6.72;;
37845;SDS011;23686;49.828;8.702;2022-10-16T06:58:17;11.23;;;5.43;;
37845;SDS011;23686;49.828;8.702;2022-10-16T07:00:43;8.15;;;5.47;;
37845;SDS011;23686;49.828;8.702;2022-10-16T07:03:09;7.15;;;5.22;;
37845;SDS011;23686;49.828;8.702;2022-10-16T07:05:41;5.65;;;4.13;;
37845;SDS011;23686;49.828;8.702;2022-10-16T07:08:07;7.47;;;3.90;;
37845;SDS011;23686;49.828;8.702;2022-10-16T07:10:33;10.63;;;4.35;;
37845;SDS011;23686;49.828;8.702;2022-10-16T07:12:59;6.28;;;4.75;;
37845;SDS011;23686;49.828;8.702;2022-10-16T07:15:25;6.90;;;3.60;;
37845;SDS011;23686;49.828;8.702;2022-10-16T07:17:51;3.65;;;3.33;;
37845;SDS011;23686;49.828;8.702;2022-10-16T07:20:17;5.95;;;3.40;;
37845;SDS011;23686;49.828;8.702;2022-10-16T07:22:43;5.97;;;3.45;;
37845;SDS011;23686;49.828;8.702;2022-10-16T07:25:09;5.07;;;2.97;;
37845;SDS011;23686;49.828;8.702;2022-10-16T07:27:35;4.13;;;2.88;;
37845;SDS011;23686;49.828;8.702;2022-10-16T07:30:00;6.50;;;2.80;;
37845;SDS011;23686;49.828;8.702;2022-10-16T07:32:26;8.13;;;3.50;;
37845;SDS011;23686;49.828;8.702;2022-10-16T07:34:52;4.53;;;3.33;;
37845;SDS011;23686;49.828;8.702;2022-10-16T07:37:18;7.35;;;3.75;;
37845;SDS011;23686;49.828;8.702;2022-10-16T07:39:44;10.10;;;7.55;;
37845;SDS011;23686;49.828;8.702;2022-10-16T07:42:09;9.13;;;6.78;;
37845;SDS011;23686;49.828;8.702;2022-10-16T07:44:35;8.63;;;7.35;;
37845;SDS011;23686;49.828;8.702;2022-10-16T07:47:00;8.02;;;5.30;;
37845;SDS011;23686;49.828;8.702;2022-10-16T07:49:26;5.95;;;4.85;;
37845;SDS011;23686;49.828;8.702;2022-10-16T07:51:52;5.22;;;4.70;;
37845;SDS011;23686;49.828;8.702;2022-10-16T07:54:17;5.68;;;4.53;;
37845;SDS011;23686;49.828;8.702;2022-10-16T07:56:43;9.07;;;4.72;;
37845;SDS011;23686;49.828;8.702;2022-10-16T07:59:08;6.03;;;4.82;;
37845;SDS011;23686;49.828;8.702;2022-10-16T08:01:34;4.72;;;3.83;;
37845;SDS011;23686;49.828;8.702;2022-10-16T08:03:59;5.57;;;3.63;;
37845;SDS011;23686;49.828;8.702;2022-10-16T08:06:25;5.95;;;3.78;;
37845;SDS011;23686;49.828;8.702;2022-10-16T08:08:50;8.25;;;3.50;;
37845;SDS011;23686;49.828;8.702;2022-10-16T08:11:16;4.65;;;3.03;;
37845;SDS011;23686;49.828;8.702;2022-10-16T08:13:42;5.20;;;4.68;;
37845;SDS011;23686;49.828;8.702;2022-10-16T08:16:08;6.32;;;5.05;;
37845;SDS011;23686;49.828;8.702;2022-10-16T08:18:35;4.60;;;3.85;;
37845;SDS011;23686;49.828;8.702;2022-10-16T08:21:01;5.78;;;3.33;;
37845;SDS011;23686;49.828;8.702;2022-10-16T08:23:28;7.47;;;3.58;;
37845;SDS011;23686;49.828;8.702;2022-10-16T08:25:54;4.55;;;2.70;;
37845;SDS011;23686;49.828;8.702;2022-10-16T08:28:20;5.85;;;2.40;;
37845;SDS011;23686;49.828;8.702;2022-10-16T08:30:47;3.47;;;2.70;;
37845;SDS011;23686;49.828;8.702;2022-10-16T08:33:13;5.30;;;2.10;;
37845;SDS011;23686;49.828;8.702;2022-10-16T08:35:39;5.88;;;2.53;;
37845;SDS011;23686;49.828;8.702;2022-10-16T08:38:05;3.88;;;2.95;;
37845;SDS011;23686;49.828;8.702;2022-10-16T08:40:31;3.58;;;2.25;;
37845;SDS011;23686;49.828;8.702;2022-10-16T08:48:15;23.83;;;8.95;;
37845;SDS011;23686;49.828;8.702;2022-10-16T08:50:45;25.88;;;7.70;;
37845;SDS011;23686;49.828;8.702;2022-10-16T08:53:15;13.48;;;5.05;;
37845;SDS011;23686;49.828;8.702;2022-10-16T08:58:15;14.68;;;7.47;;
37845;SDS011;23686;49.828;8.702;2022-10-16T09:01:01;17.90;;;7.80;;
37845;SDS011;23686;49.828;8.702;2022-10-16T09:03:45;13.93;;;7.45;;
37845;SDS011;23686;49.828;8.702;2022-10-16T09:12:12;18.20;;;11.65;;
37845;SDS011;23686;49.828;8.702;2022-10-16T09:15:07;14.45;;;5.95;;
37845;SDS011;23686;49.828;8.702;2022-10-16T09:17:52;8.35;;;3.80;;
37845;SDS011;23686;49.828;8.702;2022-10-16T09:23:10;9.65;;;3.47;;
37845;SDS011;23686;49.828;8.702;2022-10-16T09:25:43;8.27;;;4.85;;
37845;SDS011;23686;49.828;8.702;2022-10-16T09:30:58;7.25;;;5.13;;
37845;SDS011;23686;49.828;8.702;2022-10-16T09:33:25;4.00;;;2.97;;
37845;SDS011;23686;49.828;8.702;2022-10-16T09:35:56;4.57;;;2.92;;
37845;SDS011;23686;49.828;8.702;2022-10-16T09:38:27;8.98;;;3.35;;
37845;SDS011;23686;49.828;8.702;2022-10-16T09:40:54;4.63;;;3.10;;
37845;SDS011;23686;49.828;8.702;2022-10-16T09:43:30;3.38;;;3.08;;
37845;SDS011;23686;49.828;8.702;2022-10-16T09:46:21;5.43;;;3.00;;
37845;SDS011;23686;49.828;8.702;2022-10-16T09:48:51;2.55;;;2.35;;
37845;SDS011;23686;49.828;8.702;2022-10-16T09:51:38;3.53;;;2.35;;
37845;SDS011;23686;49.828;8.702;2022-10-16T09:56:35;3.42;;;2.35;;
37845;SDS011;23686;49.828;8.702;2022-10-16T09:59:08;3.97;;;2.47;;
37845;SDS011;23686;49.828;8.702;2022-10-16T10:01:44;5.65;;;2.70;;
37845;SDS011;23686;49.828;8.702;2022-10-16T10:04:15;4.05;;;2.40;;
37845;SDS011;23686;49.828;8.702;2022-10-16T10:06:44;5.47;;;2.97;;
37845;SDS011;23686;49.828;8.702;2022-10-16T10:09:32;5.07;;;2.45;;
37845;SDS011;23686;49.828;8.702;2022-10-16T10:12:16;4.68;;;2.35;;
37845;SDS011;23686;49.828;8.702;2022-10-16T10:14:46;2.28;;;2.08;;
37845;SDS011;23686;49.828;8.702;2022-10-16T10:17:18;7.93;;;2.47;;
37845;SDS011;23686;49.828;8.702;2022-10-16T10:19:52;4.00;;;2.22;;
37845;SDS011;23686;49.828;8.702;2022-10-16T10:30:20;2.70;;;2.10;;
37845;SDS011;23686;49.828;8.702;2022-10-16T10:33:12;3.33;;;1.83;;
37845;SDS011;23686;49.828;8.702;2022-10-16T10:41:19;2.47;;;1.75;;
37845;SDS011;23686;49.828;8.702;2022-10-16T10:46:56;2.90;;;2.40;;
37845;SDS011;23686;49.828;8.702;2022-10-16T10:49:42;3.47;;;2.60;;
37845;SDS011;23686;49.828;8.702;2022-10-16T10:54:55;4.63;;;2.30;;
37845;SDS011;23686;49.828;8.702;2022-10-16T10:57:40;2.13;;;1.95;;
37845;SDS011;23686;49.828;8.702;2022-10-16T11:00:20;5.63;;;2.67;;
37845;SDS011;23686;49.828;8.702;2022-10-16T11:03:10;6.53;;;2.25;;
37845;SDS011;23686;49.828;8.702;2022-10-16T11:11:02;4.85;;;2.55;;
37845;SDS011;23686;49.828;8.702;2022-10-16T11:13:36;4.43;;;3.17;;
37845;SDS011;23686;49.828;8.702;2022-10-16T11:16:28;2.90;;;2.38;;
37845;SDS011;23686;49.828;8.702;2022-10-16T11:19:22;2.85;;;2.58;;
37845;SDS011;23686;49.828;8.702;2022-10-16T11:24:59;2.40;;;1.90;;
37845;SDS011;23686;49.828;8.702;2022-10-16T11:27:35;4.57;;;2.28;;
37845;SDS011;23686;49.828;8.702;2022-10-16T11:30:27;2.50;;;1.90;;
37845;SDS011;23686;49.828;8.702;2022-10-16T11:33:10;3.33;;;2.20;;
37845;SDS011;23686;49.828;8.702;2022-10-16T11:38:26;3.28;;;2.00;;
37845;SDS011;23686;49.828;8.702;2022-10-16T11:56:06;2.58;;;2.30;;
37845;SDS011;23686;49.828;8.702;2022-10-16T12:02:40;5.15;;;2.65;;
37845;SDS011;23686;49.828;8.702;2022-10-16T12:08:27;2.35;;;2.15;;
37845;SDS011;23686;49.828;8.702;2022-10-16T12:19:44;3.20;;;2.35;;
37845;SDS011;23686;49.828;8.702;2022-10-16T12:22:28;3.13;;;2.55;;
37845;SDS011;23686;49.828;8.702;2022-10-16T12:24:56;10.38;;;2.90;;
37845;SDS011;23686;49.828;8.702;2022-10-16T12:34:18;5.20;;;2.92;;
37845;SDS011;23686;49.828;8.702;2022-10-16T12:37:26;3.30;;;2.65;;
37845;SDS011;23686;49.828;8.702;2022-10-16T12:46:18;3.13;;;2.42;;
37845;SDS011;23686;49.828;8.702;2022-10-16T12:52:22;4.53;;;2.10;;
37845;SDS011;23686;49.828;8.702;2022-10-16T12:55:27;3.72;;;2.13;;
37845;SDS011;23686;49.828;8.702;2022-10-16T13:04:16;4.43;;;2.58;;
37845;SDS011;23686;49.828;8.702;2022-10-16T13:10:15;4.45;;;2.80;;
37845;SDS011;23686;49.828;8.702;2022-10-16T13:16:13;4.70;;;2.83;;
37845;SDS011;23686;49.828;8.702;2022-10-16T13:21:41;3.17;;;2.38;;
37845;SDS011;23686;49.828;8.702;2022-10-16T13:24:35;4.25;;;2.42;;
37845;SDS011;23686;49.828;8.702;2022-10-16T13:27:07;3.92;;;3.00;;
37845;SDS011;23686;49.828;8.702;2022-10-16T13:29:43;7.25;;;2.83;;
37845;SDS011;23686;49.828;8.702;2022-10-16T13:32:09;3.65;;;2.17;;
37845;SDS011;23686;49.828;8.702;2022-10-16T13:34:46;6.80;;;3.15;;
37845;SDS011;23686;49.828;8.702;2022-10-16T13:37:24;3.20;;;2.90;;
37845;SDS011;23686;49.828;8.702;2022-10-16T13:39:50;6.85;;;2.85;;
37845;SDS011;23686;49.828;8.702;2022-10-16T13:44:52;4.97;;;3.22;;
37845;SDS011;23686;49.828;8.702;2022-10-16T13:57:25;7.55;;;2.53;;
37845;SDS011;23686;49.828;8.702;2022-10-16T13:59:50;3.60;;;2.33;;
37845;SDS011;23686;49.828;8.702;2022-10-16T14:02:24;4.67;;;2.80;;
37845;SDS011;23686;49.828;8.702;2022-10-16T14:04:59;12.45;;;3.35;;
37845;SDS011;23686;49.828;8.702;2022-10-16T14:07:29;5.55;;;3.45;;
37845;SDS011;23686;49.828;8.702;2022-10-16T14:10:32;11.25;;;3.40;;
37845;SDS011;23686;49.828;8.702;2022-10-16T14:12:56;4.75;;;3.22;;
37845;SDS011;23686;49.828;8.702;2022-10-16T14:15:30;12.32;;;3.38;;
37845;SDS011;23686;49.828;8.702;2022-10-16T14:17:57;8.40;;;3.33;;
37845;SDS011;23686;49.828;8.702;2022-10-16T14:30:28;4.80;;;3.60;;
37845;SDS011;23686;49.828;8.702;2022-10-16T14:35:36;9.25;;;2.80;;
37845;SDS011;23686;49.828;8.702;2022-10-16T14:38:04;6.38;;;3.30;;
37845;SDS011;23686;49.828;8.702;2022-10-16T14:40:32;5.40;;;3.10;;
37845;SDS011;23686;49.828;8.702;2022-10-16T14:43:00;5.90;;;3.30;;
37845;SDS011;23686;49.828;8.702;2022-10-16T14:45:28;4.03;;;3.63;;
37845;SDS011;23686;49.828;8.702;2022-10-16T14:47:57;5.28;;;3.30;;
37845;SDS011;23686;49.828;8.702;2022-10-16T14:50:25;6.47;;;3.15;;
37845;SDS011;23686;49.828;8.702;2022-10-16T14:52:51;5.28;;;3.20;;
37845;SDS011;23686;49.828;8.702;2022-10-16T14:55:17;4.43;;;3.50;;
37845;SDS011;23686;49.828;8.702;2022-10-16T14:57:43;8.75;;;3.42;;
37845;SDS011;23686;49.828;8.702;2022-10-16T15:03:32;4.78;;;3.28;;
37845;SDS011;23686;49.828;8.702;2022-10-16T15:12:17;4.15;;;3.45;;
37845;SDS011;23686;49.828;8.702;2022-10-16T15:18:05;6.55;;;3.83;;
37845;SDS011;23686;49.828;8.702;2022-10-16T15:20:31;10.75;;;3.70;;
37845;SDS011;23686;49.828;8.702;2022-10-16T15:26:27;9.95;;;3.58;;
37845;SDS011;23686;49.828;8.702;2022-10-16T15:45:42;12.07;;;4.38;;
37845;SDS011;23686;49.828;8.702;2022-10-16T15:48:11;13.95;;;4.28;;
37845;SDS011;23686;49.828;8.702;2022-10-16T15:50:38;10.20;;;4.93;;
37845;SDS011;23686;49.828;8.702;2022-10-16T15:59:48;17.92;;;4.70;;
37845;SDS011;23686;49.828;8.702;2022-10-16T16:05:37;13.35;;;4.28;;
37845;SDS011;23686;49.828;8.702;2022-10-16T16:08:04;6.72;;;4.13;;
37845;SDS011;23686;49.828;8.702;2022-10-16T16:10:29;10.13;;;4.03;;
37845;SDS011;23686;49.828;8.702;2022-10-16T16:12:55;15.73;;;4.82;;
37845;SDS011;23686;49.828;8.702;2022-10-16T16:15:21;9.98;;;4.05;;
37845;SDS011;23686;49.828;8.702;2022-10-16T16:17:48;7.82;;;4.30;;
37845;SDS011;23686;49.828;8.702;2022-10-16T16:20:14;16.15;;;5.10;;
37845;SDS011;23686;49.828;8.702;2022-10-16T16:22:40;7.82;;;4.10;;
37845;SDS011;23686;49.828;8.702;2022-10-16T16:25:05;9.43;;;4.32;;
37845;SDS011;23686;49.828;8.702;2022-10-16T16:30:53;8.30;;;5.05;;
37845;SDS011;23686;49.828;8.702;2022-10-16T16:33:19;21.38;;;4.90;;
37845;SDS011;23686;49.828;8.702;2022-10-16T16:35:44;7.25;;;4.82;;
37845;SDS011;23686;49.828;8.702;2022-10-16T16:38:10;7.65;;;5.00;;
37845;SDS011;23686;49.828;8.702;2022-10-16T16:40:35;9.30;;;5.00;;
37845;SDS011;23686;49.828;8.702;2022-10-16T16:43:01;12.48;;;6.00;;
37845;SDS011;23686;49.828;8.702;2022-10-16T16:45:27;8.57;;;5.07;;
37845;SDS011;23686;49.828;8.702;2022-10-16T16:47:53;14.85;;;5.70;;
37845;SDS011;23686;49.828;8.702;2022-10-16T16:50:18;16.00;;;6.18;;
37845;SDS011;23686;49.828;8.702;2022-10-16T16:52:44;11.27;;;6.03;;
37845;SDS011;23686;49.828;8.702;2022-10-16T16:55:09;15.93;;;5.45;;
37845;SDS011;23686;49.828;8.702;2022-10-16T16:57:35;11.82;;;5.65;;
37845;SDS011;23686;49.828;8.702;2022-10-16T17:00:00;7.47;;;4.63;;
37845;SDS011;23686;49.828;8.702;2022-10-16T17:02:26;10.20;;;4.95;;
37845;SDS011;23686;49.828;8.702;2022-10-16T17:04:52;8.82;;;5.70;;
37845;SDS011;23686;49.828;8.702;2022-10-16T17:10:43;12.60;;;4.55;;
37845;SDS011;23686;49.828;8.702;2022-10-16T17:13:09;6.57;;;4.30;;
37845;SDS011;23686;49.828;8.702;2022-10-16T17:15:34;9.65;;;4.28;;
37845;SDS011;23686;49.828;8.702;2022-10-16T17:18:00;11.02;;;4.53;;
37845;SDS011;23686;49.828;8.702;2022-10-16T17:20:25;14.43;;;6.18;;
37845;SDS011;23686;49.828;8.702;2022-10-16T17:22:51;12.68;;;5.45;;
37845;SDS011;23686;49.828;8.702;2022-10-16T17:25:17;12.07;;;5.85;;
37845;SDS011;23686;49.828;8.702;2022-10-16T17:27:42;16.80;;;5.32;;
37845;SDS011;23686;49.828;8.702;2022-10-16T17:30:08;23.20;;;5.32;;
37845;SDS011;23686;49.828;8.702;2022-10-16T17:32:34;12.48;;;5.13;;
37845;SDS011;23686;49.828;8.702;2022-10-16T17:35:00;9.73;;;4.60;;
37845;SDS011;23686;49.828;8.702;2022-10-16T17:37:25;8.45;;;3.95;;
37845;SDS011;23686;49.828;8.702;2022-10-16T17:39:51;21.00;;;5.22;;
37845;SDS011;23686;49.828;8.702;2022-10-16T17:42:16;20.75;;;12.05;;
37845;SDS011;23686;49.828;8.702;2022-10-16T17:44:42;22.02;;;8.85;;
37845;SDS011;23686;49.828;8.702;2022-10-16T17:47:08;12.98;;;7.00;;
37845;SDS011;23686;49.828;8.702;2022-10-16T17:49:33;14.23;;;6.15;;
37845;SDS011;23686;49.828;8.702;2022-10-16T17:51:59;12.93;;;6.05;;
37845;SDS011;23686;49.828;8.702;2022-10-16T17:54:26;19.25;;;6.93;;
37845;SDS011;23686;49.828;8.702;2022-10-16T17:56:52;17.23;;;6.70;;
37845;SDS011;23686;49.828;8.702;2022-10-16T17:59:18;16.48;;;6.35;;
37845;SDS011;23686;49.828;8.702;2022-10-16T18:01:46;8.80;;;6.03;;
37845;SDS011;23686;49.828;8.702;2022-10-16T18:04:14;13.73;;;6.40;;
37845;SDS011;23686;49.828;8.702;2022-10-16T18:06:41;9.10;;;5.57;;
37845;SDS011;23686;49.828;8.702;2022-10-16T18:09:08;20.20;;;7.35;;
37845;SDS011;23686;49.828;8.702;2022-10-16T18:11:35;10.38;;;5.45;;
37845;SDS011;23686;49.828;8.702;2022-10-16T18:14:01;9.90;;;4.88;;
37845;SDS011;23686;49.828;8.702;2022-10-16T18:16:28;12.00;;;5.90;;
37845;SDS011;23686;49.828;8.702;2022-10-16T18:18:55;6.93;;;4.70;;
37845;SDS011;23686;49.828;8.702;2022-10-16T18:21:22;14.00;;;5.13;;
37845;SDS011;23686;49.828;8.702;2022-10-16T18:23:51;22.20;;;7.82;;
37845;SDS011;23686;49.828;8.702;2022-10-16T18:26:17;18.58;;;7.53;;
37845;SDS011;23686;49.828;8.702;2022-10-16T18:28:44;22.25;;;5.80;;
37845;SDS011;23686;49.828;8.702;2022-10-16T18:31:11;12.38;;;5.97;;
37845;SDS011;23686;49.828;8.702;2022-10-16T18:33:38;15.65;;;6.40;;